Flight Track Log - Related Links

Times and Time Zones

All times are in EST time to prevent confusion due to time zone crossing. See the EJA929 flight status page for this flight to view local times or setup timezone preferences in your user account.

Time Position Orientation Groundspeed Altitude Reporting Facility
EST Latitude Longitude Course Direction KTS MPH feet Rate Location/Type
Wed 05:31:19 PM 26.0769 -80.1392 89° East 169 194 900  Level Miami Center
Wed 05:31:56 PM 26.0778 -80.0997 89° East 210 242 2,800 2,538 Climbing Miami Center
Wed 05:33:03 PM 26.1167 -80.0475 50° Northeast 270 311 5,300 2,578 Climbing Miami Center
Wed 05:34:04 PM 26.1547 -80.1181 301° West 284 327 8,300 2,733 Climbing Miami Center
Wed 05:34:33 PM 26.1767 -80.1650 298° West 285 328 9,400 2,656 Climbing Miami Center
Wed 05:35:05 PM 26.1861 -80.2044 285° West 294 338 11,000 2,400 Climbing Miami Center
Wed 05:35:33 PM 26.1997 -80.2489 289° West 298 343 11,800 1,159 Climbing Miami Center
Wed 05:36:33 PM 26.2289 -80.3400 290° West 333 383 12,700 1,350 Climbing Miami Center
Wed 05:37:33 PM 26.2578 -80.4497 286° West 361 415 14,500 1,550 Climbing Miami Center
Wed 05:38:33 PM 26.2925 -80.5575 290° West 373 429 15,800 1,300 Climbing Miami Center
Wed 05:39:33 PM 26.3467 -80.6425 305° West 373 429 17,100 1,250 Climbing Miami Center
Wed 05:40:33 PM 26.4236 -80.7400 311° West 380 437 18,300 1,100 Climbing Miami Center
Wed 05:41:33 PM 26.5139 -80.7942 332° Northwest 388 447 19,300 1,150 Climbing Miami Center
Wed 05:42:33 PM 26.6186 -80.8603 331° Northwest 399 459 20,600 1,250 Climbing Miami Center
Wed 05:43:33 PM 26.7172 -80.9264 329° Northwest 404 465 21,800 1,000 Climbing Miami Center
Wed 05:44:33 PM 26.8053 -80.9878 328° Northwest 412 474 22,600 950 Climbing Miami Center
Wed 05:45:33 PM 26.9078 -81.0542 330° Northwest 418 481 23,700 1,150 Climbing Miami Center
Wed 05:46:33 PM 27.0100 -81.1208 330° Northwest 423 487 24,900 1,100 Climbing Miami Center
Wed 05:47:33 PM 27.1144 -81.1922 329° Northwest 428 493 25,900 1,050 Climbing Miami Center
Wed 05:48:33 PM 27.2208 -81.2617 330° Northwest 428 493 27,000 1,250 Climbing Miami Center
Wed 05:49:33 PM 27.3292 -81.3383 328° Northwest 447 514 28,400 1,200 Climbing Miami Center
Wed 05:50:33 PM 27.4356 -81.4056 331° Northwest 447 514 29,400 1,050 Climbing Miami Center
Wed 05:51:33 PM 27.5439 -81.4800 329° Northwest 442 509 30,500 1,400 Climbing Miami Center
Wed 05:52:33 PM 27.6644 -81.5600 330° Northwest 447 514 32,200 1,800 Climbing Miami Center
Wed 05:53:33 PM 27.7725 -81.6347 329° Northwest 452 520 34,100 1,500 Climbing Miami Center
Wed 05:54:33 PM 27.8786 -81.7072 329° Northwest 447 514 35,200 1,148 Climbing Miami Center
Wed 05:56:15 PM 28.0642 -81.8294 330° Northwest 458 527 37,200 1,185 Climbing Jacksonville Center
Wed 05:57:15 PM 28.1669 -81.8967 330° Northwest 464 534 38,400 1,200 Climbing Jacksonville Center
Wed 05:58:15 PM 28.2864 -81.9569 336° Northwest 464 534 39,600 800 Climbing Jacksonville Center
Wed 05:59:15 PM 28.4078 -82.0122 338° Northwest 464 534 40,000 200 Climbing Jacksonville Center
Wed 06:00:15 PM 28.5356 -82.0678 339° North 476 548 40,000  Level Jacksonville Center
Wed 06:01:15 PM 28.6653 -82.1236 339° North 482 555 40,000  Level Jacksonville Center
Wed 06:02:15 PM 28.7950 -82.1794 339° North 487 560 40,000  Level Jacksonville Center
Wed 06:03:15 PM 28.9247 -82.2378 339° North 493 567 40,000  Level Jacksonville Center
Wed 06:04:15 PM 29.0628 -82.3011 338° Northwest 485 558 40,000  Level Jacksonville Center
Wed 06:05:15 PM 29.1903 -82.3575 339° North 485 558 40,000  Level Jacksonville Center
Wed 06:06:15 PM 29.3219 -82.4161 339° North 496 571 40,000  Level Jacksonville Center
Wed 06:07:15 PM 29.4517 -82.4706 340° North 496 571 40,000  Level Jacksonville Center
Wed 06:08:15 PM 29.5811 -82.5294 338° Northwest 496 571 40,000  Level Jacksonville Center
Wed 06:09:15 PM 29.7108 -82.5889 338° Northwest 496 571 40,000  Level Jacksonville Center
Wed 06:10:15 PM 29.8278 -82.6461 337° Northwest 499 574 40,000  Level Jacksonville Center
Wed 06:11:15 PM 29.9553 -82.7033 339° North 499 574 40,000  Level Jacksonville Center
Wed 06:12:15 PM 30.0972 -82.7631 340° North 494 568 40,000  Level Jacksonville Center
Wed 06:13:15 PM 30.2247 -82.8206 339° North 494 568 40,000  Level Jacksonville Center
Wed 06:14:15 PM 30.3542 -82.8806 338° Northwest 494 568 40,000  Level Jacksonville Center
Wed 06:15:15 PM 30.4836 -82.9408 338° Northwest 494 568 40,000  Level Jacksonville Center
Wed 06:16:15 PM 30.6111 -82.9964 339° North 489 563 40,000  Level Jacksonville Center
Wed 06:17:15 PM 30.7383 -83.0544 339° North 489 563 40,000 50 Level Jacksonville Center
Wed 06:18:15 PM 30.8489 -83.1103 337° Northwest 483 556 40,100 50 Climbing Jacksonville Center
Wed 06:19:15 PM 30.9761 -83.1689 338° Northwest 483 556 40,100  Level Jacksonville Center
Wed 06:20:15 PM 31.1033 -83.2275 338° Northwest 483 556 40,100  Level Jacksonville Center
Wed 06:22:49 PM 31.4464 -83.3889 338° Northwest 491 565 40,100  Level Atlanta Center
Wed 06:23:49 PM 31.5761 -83.4489 338° Northwest 509 586 40,100  Level Atlanta Center
Wed 06:24:49 PM 31.6911 -83.5019 339° North 516 594 40,100  Level Atlanta Center
Wed 06:25:49 PM 31.8208 -83.5597 339° North 511 588 40,100  Level Atlanta Center
Wed 06:26:49 PM 31.9483 -83.6228 337° Northwest 511 588 40,100  Level Atlanta Center
Wed 06:27:49 PM 32.0758 -83.6833 338° Northwest 504 580 40,100  Level Atlanta Center
Wed 06:28:49 PM 32.2014 -83.7442 338° Northwest 499 574 40,100  Level Atlanta Center
Wed 06:29:49 PM 32.3308 -83.8053 338° Northwest 499 574 40,100  Level Atlanta Center
Wed 06:30:49 PM 32.4561 -83.8667 338° Northwest 499 574 40,100  Level Atlanta Center
Wed 06:31:49 PM 32.5856 -83.9278 338° Northwest 499 574 40,100  Level Atlanta Center
Wed 06:32:49 PM 32.7108 -83.9919 337° Northwest 499 574 40,100  Level Atlanta Center
Wed 06:33:49 PM 32.8403 -84.0511 339° North 499 574 40,100  Level Atlanta Center
Wed 06:34:49 PM 32.9636 -84.1131 337° Northwest 494 568 40,100  Level Atlanta Center
Wed 06:35:49 PM 33.1053 -84.1825 338° Northwest 494 568 40,100  Level Atlanta Center
Wed 06:36:49 PM 33.2283 -84.2425 338° Northwest 489 563 40,100  Level Atlanta Center
Wed 06:37:49 PM 33.3389 -84.2950 338° Northwest 484 557 40,100  Level Atlanta Center
Wed 06:38:49 PM 33.4661 -84.3575 338° Northwest 484 557 40,100  Level Atlanta Center
Wed 06:39:49 PM 33.6036 -84.4253 338° Northwest 484 557 40,100  Level Atlanta Center
Wed 06:40:49 PM 33.7392 -84.4661 346° North 484 557 40,100  Level Atlanta Center
Wed 06:41:49 PM 33.8769 -84.4967 350° North 489 563 40,100  Level Atlanta Center
Wed 06:42:49 PM 34.0042 -84.5300 348° North 501 577 40,100  Level Atlanta Center
Wed 06:43:49 PM 34.1625 -84.5661 349° North 513 590 40,100 200 Level Atlanta Center
Wed 06:44:49 PM 34.3003 -84.5969 350° North 513 590 40,500 400 Climbing Atlanta Center
Wed 06:45:49 PM 34.4253 -84.6281 348° North 513 590 40,900 300 Climbing Atlanta Center
Wed 06:46:49 PM 34.5628 -84.6619 349° North 506 582 41,100 100 Climbing Atlanta Center
Wed 06:47:49 PM 34.6983 -84.6981 348° North 498 573 41,100 -50 Level Atlanta Center
Wed 06:48:49 PM 34.8358 -84.7322 348° North 498 573 41,000 -50 Descending Atlanta Center
Wed 06:49:49 PM 34.9714 -84.7664 348° North 498 573 41,000 50 Level Atlanta Center
Wed 06:50:49 PM 35.1192 -84.8031 349° North 493 567 41,100 50 Climbing Atlanta Center
Wed 06:51:49 PM 35.2567 -84.8375 348° North 493 567 41,100  Level Atlanta Center
Wed 06:52:49 PM 35.3942 -84.8719 348° North 493 567 41,100  Level Atlanta Center
Wed 06:53:49 PM 35.5294 -84.9064 348° North 493 567 41,100  Level Atlanta Center
Wed 06:54:49 PM 35.6628 -84.9411 348° North 493 567 41,100  Level Atlanta Center
Wed 06:55:49 PM 35.7753 -84.9678 349° North 493 567 41,100  Level Atlanta Center
Wed 06:56:35 PM 35.8933 -84.9953 349° North 501 577 41,100 -389 Level Indianapolis Center
Wed 06:57:37 PM 36.0194 -85.0289 348° North 487 560 40,400 -484 Descending Indianapolis Center
Wed 06:58:39 PM 36.1806 -85.0703 348° North 489 563 40,100 -145 Descending Indianapolis Center
Wed 06:59:41 PM 36.3144 -85.1039 349° North 490 564 40,100  Level Indianapolis Center
Wed 07:00:43 PM 36.4497 -85.1383 348° North 494 568 40,100  Level Indianapolis Center
Wed 07:01:45 PM 36.5825 -85.1733 348° North 489 563 40,100  Level Indianapolis Center
Wed 07:02:47 PM 36.7181 -85.2086 348° North 494 568 40,100  Level Indianapolis Center
Wed 07:03:49 PM 36.8531 -85.2436 348° North 496 571 40,100  Level Indianapolis Center
Wed 07:04:51 PM 37.0153 -85.2861 348° North 495 570 40,100  Level Indianapolis Center
Wed 07:05:53 PM 37.1356 -85.3181 348° North 496 571 40,100  Level Indianapolis Center
Wed 07:06:55 PM 37.2922 -85.3586 348° North 489 563 40,100  Level Indianapolis Center
Wed 07:07:57 PM 37.4278 -85.3947 348° North 495 570 40,100  Level Indianapolis Center
Wed 07:09:00 PM 37.5631 -85.4308 348° North 494 568 40,100  Level Indianapolis Center
Wed 07:10:02 PM 37.6961 -85.4694 347° North 489 563 40,100  Level Indianapolis Center
Wed 07:11:04 PM 37.8422 -85.5061 349° North 495 570 40,100  Level Indianapolis Center
Wed 07:12:06 PM 37.9769 -85.5431 348° North 495 570 40,100  Level Indianapolis Center
Wed 07:13:08 PM 38.1094 -85.5814 347° North 490 564 40,100  Level Indianapolis Center
Wed 07:14:10 PM 38.2267 -85.6478 336° Northwest 460 529 40,100  Level Indianapolis Center
Wed 07:15:12 PM 38.3414 -85.7147 335° Northwest 452 520 40,100  Level Indianapolis Center
Wed 07:16:14 PM 38.4572 -85.7858 334° Northwest 460 529 40,100  Level Indianapolis Center
Wed 07:17:16 PM 38.5961 -85.8686 335° Northwest 458 527 40,100  Level Indianapolis Center
Wed 07:18:18 PM 38.7122 -85.9381 335° Northwest 460 529 40,100  Level Indianapolis Center
Wed 07:19:20 PM 38.8286 -86.0067 335° Northwest 461 531 40,100  Level Indianapolis Center
Wed 07:20:22 PM 38.9392 -86.0728 335° Northwest 463 533 40,100  Level Indianapolis Center
Wed 07:21:24 PM 39.0556 -86.1425 335° Northwest 463 533 40,100  Level Indianapolis Center
Wed 07:22:26 PM 39.1961 -86.2278 335° Northwest 464 534 40,100  Level Indianapolis Center
Wed 07:23:28 PM 39.3119 -86.2981 335° Northwest 462 532 40,100  Level Indianapolis Center
Wed 07:24:30 PM 39.4281 -86.3672 335° Northwest 458 527 40,100  Level Indianapolis Center
Wed 07:25:33 PM 39.5436 -86.4389 334° Northwest 458 527 40,100 -48 Level Indianapolis Center
Wed 07:26:35 PM 39.6617 -86.5108 335° Northwest 461 531 40,000  Descending Indianapolis Center
Wed 07:27:37 PM 39.7775 -86.5819 335° Northwest 454 522 40,100 48 Climbing Indianapolis Center
Wed 07:28:39 PM 39.8942 -86.6542 335° Northwest 460 529 40,100  Level Indianapolis Center
Wed 07:29:41 PM 40.0350 -86.7417 335° Northwest 465 535 40,100  Level Indianapolis Center
Wed 07:30:43 PM 40.1525 -86.8153 334° Northwest 468 539 40,100  Level Indianapolis Center
Wed 07:31:15 PM 40.1997 -86.8442 335° Northwest 468 539 40,100  Level Chicago Center
Wed 07:32:17 PM 40.3378 -86.9308 334° Northwest 462 532 40,100 -97 Level Chicago Center
Wed 07:33:19 PM 40.4533 -87.0033 334° Northwest 461 531 39,900 -629 Descending Chicago Center
Wed 07:34:21 PM 40.5664 -87.0739 335° Northwest 456 525 38,800 -919 Descending Chicago Center
Wed 07:35:23 PM 40.6581 -87.1842 318° Northwest 426 490 38,000 -1,113 Descending Chicago Center
Wed 07:36:25 PM 40.7428 -87.2908 316° Northwest 425 489 36,500 -1,742 Descending Chicago Center
Wed 07:37:27 PM 40.8508 -87.3486 338° Northwest 435 501 34,400 -1,488 Descending Chicago Center
Wed 07:38:30 PM 40.9856 -87.3531 359° North 481 554 33,400 -816 Descending Chicago Center
Wed 07:39:32 PM 41.1547 -87.3531 360° North 507 583 32,700 -1,065 Descending Chicago Center
Wed 07:40:34 PM 41.2911 -87.3528 360° North 498 573 31,200 -774 Descending Chicago Center
Wed 07:41:36 PM 41.4278 -87.3522 360° North 496 571 31,100 -290 Descending Chicago Center
Wed 07:42:38 PM 41.5636 -87.3525 360° North 495 570 30,600 -2,371 Descending Chicago Center
Wed 07:43:40 PM 41.7244 -87.3531 360° North 484 557 26,200 -3,097 Descending Chicago Center
Wed 07:44:42 PM 41.8403 -87.3517 North 431 496 24,200 -1,452 Descending Chicago Center
Wed 07:45:44 PM 41.9528 -87.3511 360° North 411 473 23,200 -1,113 Descending Chicago Center
Wed 07:46:46 PM 42.0689 -87.3508 360° North 418 481 21,900 -1,500 Descending Chicago Center
Wed 07:47:48 PM 42.1800 -87.3514 360° North 401 461 20,100 -1,452 Descending Chicago Center
Wed 07:48:50 PM 42.3158 -87.3500 360° North 407 468 18,900 -1,104 Descending Chicago Center
Wed 07:49:53 PM 42.4253 -87.3503 360° North 397 457 17,800 -1,728 Descending Chicago Center
Wed 07:50:55 PM 42.5147 -87.3492 North 368 423 15,300 -2,952 Descending Chicago Center
Wed 07:51:57 PM 42.6358 -87.3506 360° North 362 417 11,700 -2,565 Descending Chicago Center
Wed 07:52:59 PM 42.7142 -87.3878 341° North 333 383 10,000 -871 Descending Chicago Center
Wed 07:54:01 PM 42.7450 -87.4825 294° West 275 316 9,900 -1,161 Descending Chicago Center
Wed 07:55:03 PM 42.7706 -87.5581 295° West 228 262 7,600 -3,048 Descending Chicago Center
Wed 07:56:05 PM 42.7811 -87.6564 278° West 223 257 3,600 -2,226 Descending Chicago Center
Wed 07:57:07 PM 42.7778 -87.7389 267° West 225 259 3,000 -581 Descending Chicago Center
Wed 07:59:00 PM 42.7500 -87.8000 236° Southwest  Level FlightAware Approximate
Wed 08:06:00 PM 42.7612 -87.8139 236° Southwest  Level Estimated
Wed 08:07:00 PM 42.7612 -87.8139 236° Southwest  Level Estimated
Wed 08:08:00 PM 42.7612 -87.8139 236° Southwest  Level Estimated
Wed 08:09:00 PM 42.7612 -87.8139 236° Southwest  Level Estimated
Wed 08:10:00 PM 42.7612 -87.8139 236° Southwest  Level Estimated
Wed 08:11:00 PM 42.7612 -87.8139 236° Southwest  Level Estimated
Wed 08:12:00 PM 42.7612 -87.8139 236° Southwest  Level Estimated
Wed 08:13:00 PM 42.7612 -87.8139 236° Southwest  Level Estimated
Wed 08:14:00 PM 42.7612 -87.8139 236° Southwest  Level Estimated
Wed 08:15:00 PM 42.7612 -87.8139 236° Southwest  Level Estimated
Wed 08:16:00 PM 42.7612 -87.8139 236° Southwest  Level Estimated

Login

Don't have an account? Register now (free) for customized features, flight alerts, and more!